createdAt,value
2023-06-21T00:01:06.383Z,0.05
2023-06-21T00:03:33.520Z,0.00
2023-06-21T00:06:00.616Z,0.10
2023-06-21T00:08:27.575Z,0.20
2023-06-21T00:10:54.831Z,0.10
2023-06-21T00:13:21.776Z,0.00
2023-06-21T00:15:50.934Z,0.10
2023-06-21T00:18:17.986Z,0.00
2023-06-21T00:20:45.033Z,0.03
2023-06-21T00:23:12.595Z,0.03
2023-06-21T00:25:39.943Z,0.10
2023-06-21T00:28:06.977Z,0.05
2023-06-21T00:30:34.144Z,0.30
2023-06-21T00:33:02.965Z,0.00
2023-06-21T00:35:30.138Z,0.03
2023-06-21T00:37:57.201Z,0.10
2023-06-21T00:40:34.938Z,0.10
2023-06-21T00:43:04.664Z,0.00
2023-06-21T00:45:39.300Z,0.00
2023-06-21T00:48:09.594Z,0.10
2023-06-21T00:50:39.869Z,0.10
2023-06-21T00:53:07.409Z,0.20
2023-06-21T00:55:34.395Z,0.32
2023-06-21T00:58:02.818Z,0.03
2023-06-21T01:00:31.008Z,0.10
2023-06-21T01:02:59.400Z,0.00
2023-06-21T01:05:26.538Z,0.10
2023-06-21T01:08:12.831Z,0.10
2023-06-21T01:11:38.960Z,0.10
2023-06-21T01:14:21.840Z,0.10
2023-06-21T01:16:50.113Z,0.00
2023-06-21T01:19:52.122Z,0.00
2023-06-21T01:22:39.133Z,0.20
2023-06-21T01:25:42.309Z,0.50
2023-06-21T01:28:37.538Z,0.40
2023-06-21T01:31:04.652Z,0.55
2023-06-21T01:33:32.763Z,0.73
2023-06-21T01:36:03.452Z,0.80
2023-06-21T01:38:30.648Z,0.52
2023-06-21T01:40:57.853Z,0.75
2023-06-21T01:43:24.866Z,0.63
2023-06-21T01:45:53.650Z,0.52
2023-06-21T01:48:22.767Z,0.52
2023-06-21T01:50:51.357Z,0.47
2023-06-21T01:53:18.456Z,0.40
2023-06-21T01:55:49.403Z,0.43
2023-06-21T01:58:17.243Z,0.30
2023-06-21T02:00:45.335Z,0.60
2023-06-21T02:03:13.549Z,0.30
2023-06-21T02:05:40.778Z,0.30
2023-06-21T02:08:10.273Z,0.75
2023-06-21T02:10:37.260Z,0.38
2023-06-21T02:13:04.255Z,0.40
2023-06-21T02:15:31.307Z,0.40
2023-06-21T02:17:58.744Z,0.20
2023-06-21T02:20:26.113Z,0.20
2023-06-21T02:22:53.490Z,0.25
2023-06-21T02:25:20.647Z,0.32
2023-06-21T02:27:50.591Z,0.30
2023-06-21T02:30:17.613Z,0.28
2023-06-21T02:32:44.727Z,0.20
2023-06-21T02:35:11.908Z,0.22
2023-06-21T02:37:38.898Z,0.20
2023-06-21T02:40:12.758Z,0.20
2023-06-21T02:42:40.764Z,0.35
2023-06-21T02:45:08.739Z,0.20
2023-06-21T02:47:35.815Z,0.35
2023-06-21T02:50:03.882Z,0.20
2023-06-21T02:52:31.343Z,0.30
2023-06-21T02:54:58.957Z,0.30
2023-06-21T02:57:26.046Z,0.40
2023-06-21T02:59:53.164Z,0.28
2023-06-21T03:02:20.201Z,0.30
2023-06-21T03:04:47.253Z,0.30
2023-06-21T03:07:14.256Z,0.28
2023-06-21T03:09:41.333Z,0.30
2023-06-21T03:12:09.779Z,0.40
2023-06-21T03:14:40.699Z,0.20
2023-06-21T03:17:11.099Z,0.30
2023-06-21T03:19:38.227Z,0.40
2023-06-21T03:22:07.443Z,0.47
2023-06-21T03:24:35.031Z,0.38
2023-06-21T03:27:04.504Z,0.40
2023-06-21T03:29:34.729Z,0.30
2023-06-21T03:32:02.100Z,0.30
2023-06-21T03:34:30.209Z,0.43
2023-06-21T03:36:57.326Z,0.57
2023-06-21T03:39:26.677Z,0.30
2023-06-21T03:41:53.822Z,0.60
2023-06-21T03:44:21.097Z,0.55
2023-06-21T03:46:48.295Z,0.50
2023-06-21T03:49:15.279Z,0.57
2023-06-21T03:51:42.452Z,0.63
2023-06-21T03:54:09.467Z,1.17
2023-06-21T03:56:36.642Z,0.90
2023-06-21T03:59:03.871Z,1.08
2023-06-21T04:01:30.963Z,0.88
2023-06-21T04:03:58.158Z,0.82
2023-06-21T04:06:27.166Z,0.95
2023-06-21T04:08:54.194Z,1.15
2023-06-21T04:11:21.405Z,0.82
2023-06-21T04:13:51.024Z,0.57
2023-06-21T04:16:18.400Z,0.80
2023-06-21T04:18:46.245Z,0.82
2023-06-21T04:21:13.356Z,1.25
2023-06-21T04:23:41.296Z,1.13
2023-06-21T04:26:09.109Z,1.00
2023-06-21T04:28:36.225Z,0.63
2023-06-21T04:31:03.430Z,0.77
2023-06-21T04:33:30.560Z,1.00
2023-06-21T04:35:58.588Z,0.40
2023-06-21T04:38:25.611Z,0.88
2023-06-21T04:40:53.687Z,1.20
2023-06-21T04:43:22.314Z,0.60
2023-06-21T04:45:49.936Z,0.70
2023-06-21T04:48:16.961Z,0.70
2023-06-21T04:50:46.763Z,0.70
2023-06-21T04:53:14.224Z,0.57
2023-06-21T04:55:45.147Z,0.68
2023-06-21T04:58:13.591Z,0.73
2023-06-21T05:00:40.740Z,0.70
2023-06-21T05:03:07.802Z,1.02
2023-06-21T05:05:47.656Z,0.85
2023-06-21T05:08:34.221Z,0.85
2023-06-21T05:11:38.206Z,1.00
2023-06-21T05:14:11.240Z,0.98
2023-06-21T05:16:45.577Z,1.33
2023-06-21T05:19:16.519Z,0.77
2023-06-21T05:22:00.879Z,0.77
2023-06-21T05:27:45.117Z,0.30
2023-06-21T05:30:15.379Z,0.70
2023-06-21T05:32:49.920Z,1.38
2023-06-21T05:35:31.875Z,0.77
2023-06-21T05:38:07.120Z,0.63
2023-06-21T05:40:40.096Z,0.63
2023-06-21T05:43:25.244Z,0.88
2023-06-21T05:46:03.745Z,0.68
2023-06-21T05:48:43.499Z,0.65
2023-06-21T05:51:17.904Z,0.40
2023-06-21T05:53:52.950Z,0.70
2023-06-21T05:56:49.431Z,0.90
2023-06-21T05:59:35.424Z,1.38
2023-06-21T06:02:19.161Z,0.80
2023-06-21T06:05:14.554Z,1.15
2023-06-21T06:07:45.935Z,1.00
2023-06-21T06:10:40.717Z,0.68
2023-06-21T06:13:12.480Z,0.80
2023-06-21T06:18:46.869Z,1.80
2023-06-21T06:21:20.784Z,0.68
2023-06-21T06:24:08.370Z,0.70
2023-06-21T06:26:55.552Z,1.02
2023-06-21T06:29:35.214Z,0.60
2023-06-21T06:32:10.933Z,0.60
2023-06-21T06:34:42.417Z,0.50
2023-06-21T06:37:40.611Z,0.52
2023-06-21T06:40:17.102Z,0.80
2023-06-21T06:43:02.317Z,0.30
2023-06-21T06:45:40.145Z,0.20
2023-06-21T06:48:24.180Z,0.20
2023-06-21T06:50:56.782Z,0.20
2023-06-21T06:53:32.868Z,0.20
2023-06-21T06:56:00.976Z,0.20
2023-06-21T06:58:29.091Z,0.20
2023-06-21T07:00:56.425Z,0.20
2023-06-21T07:03:23.654Z,0.20
2023-06-21T07:05:50.767Z,0.10
2023-06-21T07:08:18.679Z,0.20
2023-06-21T07:10:45.827Z,0.10
2023-06-21T07:13:12.863Z,0.30
2023-06-21T07:15:39.898Z,0.17
2023-06-21T07:18:07.166Z,0.10
2023-06-21T07:20:38.063Z,0.10
2023-06-21T07:23:05.252Z,0.10
2023-06-21T07:25:32.339Z,0.10
2023-06-21T07:27:59.381Z,0.10
2023-06-21T07:30:27.149Z,0.17
2023-06-21T07:32:54.547Z,0.30
2023-06-21T07:35:21.639Z,0.03
2023-06-21T07:37:48.671Z,0.10
2023-06-21T07:40:15.928Z,0.20
2023-06-21T07:42:43.213Z,0.20
2023-06-21T07:45:10.380Z,0.00
2023-06-21T07:47:37.913Z,0.00
2023-06-21T07:50:21.225Z,0.00
2023-06-21T07:52:52.386Z,0.10
2023-06-21T07:55:19.434Z,0.10
2023-06-21T07:57:46.841Z,0.00
2023-06-21T08:00:14.345Z,0.00
2023-06-21T08:02:45.933Z,0.10
2023-06-21T08:05:14.573Z,0.00
2023-06-21T08:07:42.742Z,0.00
2023-06-21T08:10:10.576Z,0.00
2023-06-21T08:12:38.114Z,0.10
2023-06-21T08:15:06.472Z,0.00
2023-06-21T08:17:33.651Z,0.00
2023-06-21T08:20:01.087Z,0.00
2023-06-21T08:22:28.502Z,0.08
2023-06-21T08:24:56.063Z,0.00
2023-06-21T08:27:23.402Z,0.00
2023-06-21T08:29:50.376Z,0.00
2023-06-21T08:32:17.878Z,0.00
2023-06-21T08:34:45.052Z,0.00
2023-06-21T08:37:12.270Z,0.00
2023-06-21T08:39:39.469Z,1.27
2023-06-21T08:42:07.237Z,0.10
2023-06-21T08:44:34.400Z,0.00
2023-06-21T08:47:01.716Z,0.10
2023-06-21T08:49:29.244Z,0.00
2023-06-21T08:51:56.337Z,0.00
2023-06-21T08:54:25.756Z,0.00
2023-06-21T08:56:54.447Z,0.00
2023-06-21T08:59:28.304Z,0.00
2023-06-21T09:02:14.251Z,0.00
2023-06-21T09:04:44.855Z,0.00
2023-06-21T09:07:12.814Z,0.00
2023-06-21T09:09:40.185Z,0.00
2023-06-21T09:12:07.956Z,0.00
2023-06-21T09:14:34.982Z,0.00
2023-06-21T09:17:02.209Z,0.00
2023-06-21T09:19:29.671Z,0.00
2023-06-21T09:21:57.755Z,0.50
2023-06-21T09:24:24.749Z,0.00
2023-06-21T09:26:51.871Z,0.00
2023-06-21T09:29:18.863Z,0.00
2023-06-21T09:31:46.010Z,0.00
2023-06-21T09:34:12.995Z,0.35
2023-06-21T09:36:41.624Z,0.20
2023-06-21T09:39:09.465Z,0.00
2023-06-21T09:41:36.675Z,0.00
2023-06-21T09:44:03.976Z,0.00
2023-06-21T09:46:30.954Z,0.00
2023-06-21T09:49:08.666Z,0.00
2023-06-21T09:51:41.938Z,0.00
2023-06-21T09:54:09.549Z,0.00
2023-06-21T09:56:37.316Z,0.00
2023-06-21T09:59:05.122Z,0.10
2023-06-21T10:01:39.447Z,0.00
2023-06-21T10:04:16.810Z,0.15
2023-06-21T10:06:50.033Z,0.00
2023-06-21T10:09:17.471Z,0.00
2023-06-21T10:11:49.835Z,0.10
2023-06-21T10:14:27.534Z,0.00
2023-06-21T10:16:55.030Z,0.10
2023-06-21T10:19:26.316Z,0.00
2023-06-21T10:22:05.570Z,0.10
2023-06-21T10:24:49.555Z,0.00
2023-06-21T10:27:17.216Z,0.00
2023-06-21T10:29:45.334Z,0.00
2023-06-21T10:32:13.195Z,0.10
2023-06-21T10:35:06.686Z,0.00
2023-06-21T10:37:49.502Z,0.10
2023-06-21T10:40:19.331Z,0.10
2023-06-21T10:42:46.791Z,0.10
2023-06-21T10:45:14.040Z,0.20
2023-06-21T10:47:41.659Z,0.20
2023-06-21T10:50:09.158Z,0.10
2023-06-21T10:52:36.469Z,0.10
2023-06-21T10:55:04.235Z,0.17
2023-06-21T10:57:32.778Z,0.20
2023-06-21T11:00:04.975Z,0.20
2023-06-21T11:02:34.608Z,0.10
2023-06-21T11:05:20.417Z,0.10
2023-06-21T11:10:31.310Z,0.20
2023-06-21T11:12:58.751Z,0.10
2023-06-21T11:15:26.561Z,0.10
2023-06-21T11:18:00.595Z,0.00
2023-06-21T11:20:27.809Z,0.10
2023-06-21T11:23:02.635Z,0.10
2023-06-21T11:25:29.710Z,0.10
2023-06-21T11:28:18.465Z,0.10
2023-06-21T11:31:08.408Z,0.00
2023-06-21T11:33:49.627Z,0.20
2023-06-21T11:36:18.907Z,0.00
2023-06-21T11:39:08.059Z,0.00
2023-06-21T11:41:45.131Z,0.10
2023-06-21T11:44:12.605Z,0.00
2023-06-21T11:46:46.506Z,0.05
2023-06-21T11:49:13.931Z,0.03
2023-06-21T11:51:51.766Z,0.10
2023-06-21T11:54:31.488Z,0.20
2023-06-21T11:56:58.993Z,0.05
2023-06-21T11:59:27.020Z,0.10
2023-06-21T12:01:54.456Z,0.15
2023-06-21T12:04:28.031Z,0.00
2023-06-21T12:06:56.555Z,0.03
2023-06-21T12:09:23.627Z,0.20
2023-06-21T12:11:50.687Z,0.00
2023-06-21T12:14:17.834Z,0.00
2023-06-21T12:16:45.013Z,0.10
2023-06-21T12:19:12.161Z,0.10
2023-06-21T12:21:41.806Z,0.10
2023-06-21T12:24:13.014Z,0.10
2023-06-21T12:26:50.952Z,0.10
2023-06-21T12:29:18.295Z,0.10
2023-06-21T12:31:45.832Z,0.10
2023-06-21T12:34:19.141Z,0.10
2023-06-21T12:36:46.528Z,0.10
2023-06-21T12:39:15.570Z,0.10
2023-06-21T12:41:43.516Z,0.10
2023-06-21T12:44:24.764Z,0.00
2023-06-21T12:46:52.189Z,0.20
2023-06-21T12:49:19.511Z,0.32
2023-06-21T12:51:47.689Z,0.10
2023-06-21T12:54:19.083Z,0.03
2023-06-21T12:56:47.538Z,0.10
2023-06-21T12:59:14.937Z,0.00
2023-06-21T13:01:42.504Z,0.13
2023-06-21T13:04:13.729Z,0.00
2023-06-21T13:06:41.049Z,0.08
2023-06-21T13:09:08.846Z,0.10
2023-06-21T13:11:36.301Z,0.00
2023-06-21T13:14:06.696Z,0.08
2023-06-21T13:16:34.263Z,0.10
2023-06-21T13:19:01.480Z,0.10
2023-06-21T13:21:29.411Z,0.10
2023-06-21T13:24:00.466Z,0.10
2023-06-21T13:26:27.895Z,0.00
2023-06-21T13:28:55.009Z,0.10
2023-06-21T13:31:24.635Z,0.10
2023-06-21T13:33:53.448Z,0.10
2023-06-21T13:36:20.455Z,0.10
2023-06-21T13:38:47.487Z,0.10
2023-06-21T13:41:14.747Z,0.20
2023-06-21T13:43:42.774Z,0.40
2023-06-21T13:46:10.046Z,0.30
2023-06-21T13:48:37.014Z,0.10
2023-06-21T13:51:04.132Z,0.10
2023-06-21T13:53:31.376Z,0.20
2023-06-21T13:55:58.427Z,0.10
2023-06-21T13:58:27.714Z,0.10
2023-06-21T14:00:54.922Z,0.05
2023-06-21T14:03:22.290Z,0.10
2023-06-21T14:05:49.679Z,0.52
2023-06-21T14:08:17.844Z,0.05
2023-06-21T14:10:45.817Z,0.10
2023-06-21T14:13:22.597Z,0.03
2023-06-21T14:15:50.147Z,0.20
2023-06-21T14:18:17.203Z,0.20
2023-06-21T14:20:44.285Z,0.08
2023-06-21T14:23:11.571Z,0.10
2023-06-21T14:25:40.220Z,0.10
2023-06-21T14:28:07.225Z,0.10
2023-06-21T14:30:34.267Z,0.10
2023-06-21T14:33:08.151Z,0.08
2023-06-21T14:35:36.128Z,0.10
2023-06-21T14:38:05.186Z,0.10
2023-06-21T14:40:32.522Z,0.10
2023-06-21T14:42:59.522Z,0.10
2023-06-21T14:45:26.566Z,0.20
2023-06-21T14:47:55.707Z,0.10
2023-06-21T14:50:23.073Z,0.47
2023-06-21T14:52:51.440Z,0.00
2023-06-21T14:55:18.574Z,0.10
2023-06-21T14:57:48.453Z,0.10
2023-06-21T15:00:15.870Z,0.40
2023-06-21T15:02:43.244Z,0.10
2023-06-21T15:05:10.468Z,0.10
2023-06-21T15:07:38.015Z,0.00
2023-06-21T15:10:05.537Z,0.10
2023-06-21T15:12:34.785Z,0.10
2023-06-21T15:15:03.427Z,0.10
2023-06-21T15:17:30.948Z,0.10
2023-06-21T15:19:58.191Z,0.00
2023-06-21T15:22:25.281Z,0.00
2023-06-21T15:24:52.397Z,0.43
2023-06-21T15:27:19.362Z,0.32
2023-06-21T15:29:46.502Z,0.10
2023-06-21T15:32:14.756Z,0.10
2023-06-21T15:34:41.826Z,0.10
2023-06-21T15:37:08.801Z,0.00
2023-06-21T15:39:35.815Z,0.10
2023-06-21T15:42:02.961Z,0.10
2023-06-21T15:44:29.997Z,0.10
2023-06-21T15:46:58.845Z,0.03
2023-06-21T15:49:27.346Z,0.10
2023-06-21T15:51:54.396Z,0.00
2023-06-21T15:54:26.826Z,0.10
2023-06-21T15:56:53.806Z,1.15
2023-06-21T15:59:21.232Z,0.10
2023-06-21T16:01:48.449Z,0.10
2023-06-21T16:04:15.828Z,0.00
2023-06-21T16:06:43.383Z,0.10
2023-06-21T16:09:10.847Z,0.10
2023-06-21T16:11:37.997Z,0.00
2023-06-21T16:14:05.064Z,0.10
2023-06-21T16:16:32.001Z,0.20
2023-06-21T16:19:00.720Z,0.10
2023-06-21T16:21:27.880Z,0.10
2023-06-21T16:23:55.225Z,0.10
2023-06-21T16:26:26.683Z,0.10
2023-06-21T16:28:53.810Z,0.10
2023-06-21T16:31:21.540Z,0.10
2023-06-21T16:33:48.630Z,0.10
2023-06-21T16:36:15.861Z,0.08
2023-06-21T16:38:42.936Z,0.10
2023-06-21T16:41:09.891Z,0.03
2023-06-21T16:43:36.918Z,0.00
2023-06-21T16:46:03.924Z,0.10
2023-06-21T16:48:30.968Z,0.00
2023-06-21T16:50:58.136Z,0.10
2023-06-21T16:53:25.191Z,0.10
2023-06-21T16:55:52.253Z,0.10
2023-06-21T16:58:19.287Z,0.10
2023-06-21T17:00:46.306Z,0.08
2023-06-21T17:03:13.672Z,0.10
2023-06-21T17:05:41.403Z,0.10
2023-06-21T17:08:08.513Z,0.25
2023-06-21T17:10:35.774Z,0.10
2023-06-21T17:13:02.808Z,0.32
2023-06-21T17:15:30.103Z,0.10
2023-06-21T17:17:57.373Z,0.47
2023-06-21T17:20:24.437Z,0.10
2023-06-21T17:22:51.822Z,0.10
2023-06-21T17:25:18.805Z,0.00
2023-06-21T17:27:45.837Z,0.10
2023-06-21T17:30:13.300Z,0.10
2023-06-21T17:32:40.445Z,0.10
2023-06-21T17:35:09.987Z,0.10
2023-06-21T17:37:37.364Z,0.10
2023-06-21T17:40:05.399Z,0.10
2023-06-21T17:42:32.349Z,0.10
2023-06-21T17:44:59.448Z,0.20
2023-06-21T17:47:28.601Z,0.10
2023-06-21T17:49:55.695Z,0.10
2023-06-21T17:52:23.144Z,0.10
2023-06-21T17:54:50.227Z,0.00
2023-06-21T17:57:17.232Z,0.10
2023-06-21T17:59:44.212Z,0.10
2023-06-21T18:02:11.395Z,0.17
2023-06-21T18:04:38.520Z,0.15
2023-06-21T18:07:05.886Z,0.10
2023-06-21T18:09:32.841Z,0.20
2023-06-21T18:11:59.790Z,0.10
2023-06-21T18:14:26.791Z,0.10
2023-06-21T18:16:53.820Z,0.60
2023-06-21T18:19:20.880Z,0.10
2023-06-21T18:21:47.888Z,0.10
2023-06-21T18:24:16.001Z,0.10
2023-06-21T18:26:43.055Z,0.10
2023-06-21T18:29:10.120Z,0.10
2023-06-21T18:31:37.108Z,0.10
2023-06-21T18:34:04.278Z,0.10
2023-06-21T18:36:31.272Z,0.10
2023-06-21T18:38:58.346Z,0.20
2023-06-21T18:41:25.832Z,0.20
2023-06-21T18:43:53.006Z,0.10
2023-06-21T18:46:20.113Z,0.20
2023-06-21T18:48:50.181Z,0.30
2023-06-21T18:51:17.520Z,0.10
2023-06-21T18:53:44.649Z,0.10
2023-06-21T18:56:11.850Z,0.20
2023-06-21T18:58:40.888Z,0.10
2023-06-21T19:01:08.002Z,0.10
2023-06-21T19:03:35.439Z,0.30
2023-06-21T19:06:02.647Z,0.10
2023-06-21T19:08:29.690Z,0.10
2023-06-21T19:10:56.770Z,0.10
2023-06-21T19:13:23.799Z,0.28
2023-06-21T19:15:55.732Z,0.22
2023-06-21T19:18:22.918Z,0.10
2023-06-21T19:20:49.909Z,0.22
2023-06-21T19:23:17.149Z,0.10
2023-06-21T19:25:44.173Z,0.10
2023-06-21T19:28:11.146Z,1.27
2023-06-21T19:30:39.100Z,0.10
2023-06-21T19:33:06.144Z,0.10
2023-06-21T19:35:33.312Z,0.10
2023-06-21T19:38:26.914Z,0.22
2023-06-21T19:40:53.996Z,0.10
2023-06-21T19:43:21.103Z,0.10
2023-06-21T19:45:48.472Z,0.20
2023-06-21T19:48:15.722Z,0.10
2023-06-21T19:50:42.905Z,0.20
2023-06-21T19:53:10.028Z,0.10
2023-06-21T19:55:37.135Z,0.20
2023-06-21T19:58:04.215Z,0.30
2023-06-21T20:00:31.388Z,0.30
2023-06-21T20:02:58.808Z,0.10
2023-06-21T20:05:26.203Z,0.20
2023-06-21T20:07:53.190Z,0.10
2023-06-21T20:10:20.168Z,0.43
2023-06-21T20:12:48.483Z,0.10
2023-06-21T20:15:15.581Z,0.10
2023-06-21T20:17:42.618Z,0.10
2023-06-21T20:20:11.061Z,0.10
2023-06-21T20:22:38.151Z,0.17
2023-06-21T20:25:05.722Z,0.20
2023-06-21T20:27:32.864Z,0.10
2023-06-21T20:29:59.838Z,0.20
2023-06-21T20:32:27.046Z,0.10
2023-06-21T20:34:54.125Z,0.10
2023-06-21T20:37:21.203Z,0.10
2023-06-21T20:39:50.618Z,0.10
2023-06-21T20:42:17.718Z,0.10
2023-06-21T20:44:44.727Z,0.10
2023-06-21T20:47:13.191Z,0.15
2023-06-21T20:49:40.201Z,0.10
2023-06-21T20:52:07.516Z,0.10
2023-06-21T20:54:34.580Z,0.10
2023-06-21T20:57:01.795Z,0.17
2023-06-21T20:59:29.026Z,0.30
2023-06-21T21:01:56.215Z,0.10
2023-06-21T21:04:23.712Z,0.30
2023-06-21T21:06:50.754Z,0.10
2023-06-21T21:09:17.840Z,0.10
2023-06-21T21:11:44.920Z,0.28
2023-06-21T21:14:11.891Z,0.20
2023-06-21T21:16:38.988Z,0.40
2023-06-21T21:19:06.088Z,0.17
2023-06-21T21:21:33.180Z,0.25
2023-06-21T21:24:00.313Z,0.10
2023-06-21T21:26:27.320Z,0.20
2023-06-21T21:28:54.305Z,0.30
2023-06-21T21:31:21.388Z,0.40
2023-06-21T21:33:49.291Z,0.13
2023-06-21T21:36:16.573Z,0.20
2023-06-21T21:38:44.587Z,0.20
2023-06-21T21:41:11.956Z,0.10
2023-06-21T21:43:39.052Z,0.10
2023-06-21T21:46:07.180Z,0.57
2023-06-21T21:48:34.345Z,0.22
2023-06-21T21:51:01.336Z,0.10
2023-06-21T21:53:28.341Z,0.20
2023-06-21T21:55:55.622Z,0.17
2023-06-21T21:58:22.656Z,0.20
2023-06-21T22:00:49.858Z,0.10
2023-06-21T22:03:17.057Z,0.40
2023-06-21T22:05:44.229Z,0.30
2023-06-21T22:08:11.852Z,0.35
2023-06-21T22:10:39.993Z,0.20
2023-06-21T22:13:11.740Z,0.40
2023-06-21T22:15:51.865Z,0.20
2023-06-21T22:18:26.499Z,0.20
2023-06-21T22:21:01.996Z,0.30
2023-06-21T22:23:31.037Z,0.32
2023-06-21T22:25:59.328Z,0.20
2023-06-21T22:28:27.883Z,0.20
2023-06-21T22:30:55.456Z,0.50
2023-06-21T22:33:22.654Z,0.20
2023-06-21T22:35:50.535Z,0.40
2023-06-21T22:38:17.858Z,0.30
2023-06-21T22:40:45.281Z,0.10
2023-06-21T22:43:12.625Z,1.20
2023-06-21T22:45:44.463Z,0.28
2023-06-21T22:48:15.003Z,0.40
2023-06-21T22:50:44.047Z,0.45
2023-06-21T22:53:11.384Z,0.63
2023-06-21T22:55:38.522Z,0.40
2023-06-21T22:58:06.178Z,0.20
2023-06-21T23:00:33.245Z,0.40
2023-06-21T23:03:04.776Z,0.47
2023-06-21T23:05:34.220Z,1.20
2023-06-21T23:08:02.822Z,0.30
2023-06-21T23:10:30.451Z,0.35
2023-06-21T23:12:57.948Z,0.40
2023-06-21T23:15:25.407Z,0.40
2023-06-21T23:17:55.319Z,0.30
2023-06-21T23:20:22.897Z,0.40
2023-06-21T23:22:49.913Z,0.30
2023-06-21T23:25:18.653Z,0.40
2023-06-21T23:27:45.972Z,0.40
2023-06-21T23:30:35.229Z,0.20
2023-06-21T23:36:53.301Z,0.30
2023-06-21T23:42:21.038Z,0.30
2023-06-21T23:44:56.950Z,0.63
2023-06-21T23:47:48.832Z,0.45
2023-06-21T23:50:30.490Z,0.70
2023-06-21T23:53:08.066Z,0.20
2023-06-21T23:55:39.013Z,0.43
2023-06-21T23:58:06.019Z,0.45
